createdAt,value
2018-12-26T00:03:01.259Z,15.37
2018-12-26T00:06:02.905Z,13.57
2018-12-26T00:11:48.830Z,13.33
2018-12-26T00:17:56.680Z,15.00
2018-12-26T00:20:57.783Z,11.80
2018-12-26T00:26:42.918Z,12.43
2018-12-26T00:35:38.810Z,11.57
2018-12-26T00:38:39.998Z,12.87
2018-12-26T00:41:41.495Z,11.47
2018-12-26T00:47:47.022Z,11.30
2018-12-26T00:53:33.071Z,12.53
2018-12-26T00:56:34.410Z,14.00
2018-12-26T00:59:52.783Z,13.87
2018-12-26T01:02:57.088Z,12.43
2018-12-26T01:08:41.975Z,13.67
2018-12-26T01:11:43.239Z,14.53
2018-12-26T01:17:28.735Z,12.40
2018-12-26T01:23:13.898Z,12.70
2018-12-26T01:28:58.836Z,13.43
2018-12-26T01:32:00.340Z,15.47
2018-12-26T01:37:46.190Z,13.73
2018-12-26T01:43:31.808Z,13.17
2018-12-26T01:49:18.167Z,12.33
2018-12-26T01:52:19.527Z,14.60
2018-12-26T01:59:00.247Z,15.27
2018-12-26T02:02:03.268Z,14.73
2018-12-26T02:05:04.730Z,15.43
2018-12-26T02:08:06.276Z,13.63
2018-12-26T02:14:46.182Z,15.17
2018-12-26T02:17:47.839Z,14.10
2018-12-26T02:23:33.691Z,13.63
2018-12-26T02:29:19.962Z,18.60
2018-12-26T02:35:05.723Z,14.90
2018-12-26T02:38:07.447Z,12.33
2018-12-26T02:43:52.158Z,12.30
2018-12-26T02:47:12.385Z,15.93
2018-12-26T02:50:13.783Z,12.10
2018-12-26T02:53:14.642Z,12.87
2018-12-26T02:59:00.110Z,16.10
2018-12-26T03:04:46.616Z,13.13
2018-12-26T03:10:27.191Z,12.90
2018-12-26T03:13:34.467Z,12.57
2018-12-26T03:19:20.070Z,13.00
2018-12-26T03:22:20.403Z,14.40
2018-12-26T03:25:20.132Z,12.40
2018-12-26T03:28:22.596Z,14.37
2018-12-26T03:31:23.330Z,12.47
2018-12-26T03:34:24.839Z,15.20
2018-12-26T03:40:09.610Z,11.70
2018-12-26T03:45:54.497Z,12.53
2018-12-26T03:49:14.669Z,15.10
2018-12-26T03:55:00.368Z,14.30
2018-12-26T04:00:46.062Z,13.63
2018-12-26T04:06:31.667Z,12.37
2018-12-26T04:09:33.295Z,13.53
2018-12-26T04:15:19.733Z,13.87
2018-12-26T04:21:05.687Z,15.10
2018-12-26T04:26:50.974Z,13.60
2018-12-26T04:29:52.496Z,12.67
2018-12-26T04:35:38.178Z,13.30
2018-12-26T04:41:24.913Z,11.70
2018-12-26T04:53:56.998Z,16.30
2018-12-26T04:56:58.473Z,18.73
2018-12-26T05:00:00.031Z,14.67
2018-12-26T05:05:46.516Z,16.80
2018-12-26T05:11:32.335Z,16.50
2018-12-26T05:17:18.783Z,19.47
2018-12-26T05:20:20.123Z,17.00
2018-12-26T05:26:05.830Z,16.30
2018-12-26T05:31:51.379Z,20.20
2018-12-26T05:37:36.729Z,18.07
2018-12-26T05:40:38.090Z,18.83
2018-12-26T05:46:23.737Z,21.10
2018-12-26T05:52:10.595Z,19.17
2018-12-26T05:57:55.171Z,21.63
2018-12-26T06:00:55.791Z,22.10
2018-12-26T06:06:41.426Z,20.13
2018-12-26T06:12:27.211Z,24.03
2018-12-26T06:18:12.455Z,26.30
2018-12-26T06:21:13.998Z,21.13
2018-12-26T06:27:00.567Z,20.27
2018-12-26T06:32:45.190Z,22.07
2018-12-26T06:42:00.580Z,19.40
2018-12-26T06:47:46.252Z,23.10
2018-12-26T06:53:33.015Z,20.00
2018-12-26T06:59:13.383Z,21.53
2018-12-26T07:04:59.201Z,21.90
2018-12-26T07:08:00.752Z,22.50
2018-12-26T07:13:47.181Z,22.43
2018-12-26T07:19:32.706Z,23.03
2018-12-26T07:25:19.726Z,20.67
2018-12-26T07:31:05.311Z,18.77
2018-12-26T07:34:06.739Z,21.43
2018-12-26T07:39:52.782Z,22.03
2018-12-26T07:45:38.414Z,23.43
2018-12-26T07:51:23.763Z,24.03
2018-12-26T07:54:25.113Z,19.83
2018-12-26T08:00:10.206Z,21.27
2018-12-26T08:05:56.426Z,20.50
2018-12-26T08:11:42.134Z,24.23
2018-12-26T08:20:52.455Z,24.17
2018-12-26T08:23:53.850Z,25.10
2018-12-26T08:26:55.544Z,25.63
2018-12-26T08:29:57.939Z,26.93
2018-12-26T08:32:58.833Z,23.73
2018-12-26T08:38:44.945Z,27.10
2018-12-26T08:44:30.460Z,25.07
2018-12-26T08:50:17.277Z,26.27
2018-12-26T08:53:18.404Z,25.60
2018-12-26T08:59:03.286Z,28.03
2018-12-26T09:08:14.810Z,33.97
2018-12-26T09:11:16.367Z,31.30
2018-12-26T09:14:17.904Z,31.67
2018-12-26T09:20:02.685Z,37.60
2018-12-26T09:25:48.539Z,33.73
2018-12-26T09:31:34.283Z,29.77
2018-12-26T09:34:35.779Z,28.67
2018-12-26T09:40:22.066Z,30.17
2018-12-26T09:46:06.619Z,31.43
2018-12-26T09:52:10.882Z,33.50
2018-12-26T09:55:13.312Z,30.50
2018-12-26T09:58:14.859Z,31.63
2018-12-26T10:01:15.622Z,31.10
2018-12-26T10:07:02.154Z,33.07
2018-12-26T10:12:47.956Z,30.87
2018-12-26T10:15:49.468Z,34.60
2018-12-26T10:19:08.931Z,34.73
2018-12-26T10:22:09.662Z,33.45
2018-12-26T10:27:55.097Z,36.83
2018-12-26T10:33:39.670Z,37.93
2018-12-26T10:36:41.034Z,39.73
2018-12-26T10:42:26.782Z,37.80
2018-12-26T10:48:13.407Z,37.23
2018-12-26T10:53:59.098Z,35.87
2018-12-26T10:57:00.422Z,34.40
2018-12-26T11:00:02.626Z,38.60
2018-12-26T11:03:03.459Z,34.53
2018-12-26T11:08:49.688Z,37.80
2018-12-26T11:11:51.082Z,36.63
2018-12-26T11:17:35.803Z,39.90
2018-12-26T11:23:21.586Z,37.10
2018-12-26T11:29:07.990Z,39.23
2018-12-26T11:32:09.386Z,44.43
2018-12-26T11:37:55.663Z,39.07
2018-12-26T11:43:41.430Z,41.63
2018-12-26T11:49:26.879Z,41.60
2018-12-26T11:52:27.859Z,42.50
2018-12-26T11:58:13.563Z,39.87
2018-12-26T12:03:58.946Z,40.70
2018-12-26T12:09:44.715Z,35.37
2018-12-26T12:12:45.350Z,38.70
2018-12-26T12:18:30.623Z,42.37
2018-12-26T12:25:13.686Z,36.80
2018-12-26T12:28:33.145Z,37.77
2018-12-26T12:34:36.781Z,39.70
2018-12-26T12:37:59.527Z,37.80
2018-12-26T12:47:13.595Z,34.83
2018-12-26T12:50:15.146Z,36.63
2018-12-26T12:53:16.677Z,33.20
2018-12-26T12:59:03.410Z,39.97
2018-12-26T13:04:48.677Z,33.97
2018-12-26T13:10:34.239Z,38.73
2018-12-26T13:13:35.766Z,40.47
2018-12-26T13:19:21.506Z,37.27
2018-12-26T13:25:07.178Z,38.60
2018-12-26T13:30:53.059Z,37.07
2018-12-26T13:33:54.280Z,36.70
2018-12-26T13:39:39.958Z,37.50
2018-12-26T13:45:25.398Z,41.33
2018-12-26T13:51:11.070Z,34.80
2018-12-26T13:56:56.829Z,34.57
2018-12-26T14:00:02.283Z,41.87
2018-12-26T14:08:50.922Z,37.40
2018-12-26T14:11:51.540Z,36.20
2018-12-26T14:17:37.071Z,34.97
2018-12-26T14:24:03.893Z,40.10
2018-12-26T14:27:05.019Z,37.60
2018-12-26T14:30:11.376Z,37.63
2018-12-26T14:33:10.327Z,35.07
2018-12-26T14:36:10.970Z,35.97
2018-12-26T14:41:56.621Z,35.27
2018-12-26T14:47:41.467Z,36.60
2018-12-26T14:50:47.731Z,51.07
2018-12-26T14:56:32.810Z,35.83
2018-12-26T15:05:44.870Z,38.60
2018-12-26T15:08:46.062Z,39.00
2018-12-26T15:11:46.812Z,36.03
2018-12-26T15:17:31.374Z,40.40
2018-12-26T15:23:17.780Z,40.37
2018-12-26T15:26:19.251Z,34.53
2018-12-26T15:32:04.850Z,34.97
2018-12-26T15:35:07.423Z,34.23
2018-12-26T15:38:08.298Z,32.77
2018-12-26T15:43:53.885Z,35.63
2018-12-26T15:46:54.615Z,36.87
2018-12-26T15:52:40.406Z,32.17
2018-12-26T15:58:26.124Z,32.57
2018-12-26T16:04:12.148Z,34.17
2018-12-26T16:07:13.494Z,32.73
2018-12-26T16:12:59.059Z,38.17
2018-12-26T16:18:44.857Z,37.40
2018-12-26T16:24:29.427Z,33.03
2018-12-26T16:27:30.970Z,32.60
2018-12-26T16:33:17.451Z,34.77
2018-12-26T16:36:18.678Z,34.33
2018-12-26T16:39:20.259Z,37.57
2018-12-26T16:45:45.157Z,35.07
2018-12-26T16:48:46.615Z,35.40
2018-12-26T16:54:33.287Z,34.17
2018-12-26T16:57:34.523Z,35.73
2018-12-26T17:03:21.172Z,38.30
2018-12-26T17:09:06.606Z,41.33
2018-12-26T17:14:52.438Z,40.10
2018-12-26T17:17:54.044Z,35.17
2018-12-26T17:23:39.968Z,34.43
2018-12-26T17:29:23.372Z,41.33
2018-12-26T17:35:08.957Z,31.93
2018-12-26T17:38:10.202Z,27.63
2018-12-26T17:44:36.007Z,32.10
2018-12-26T17:50:20.845Z,31.27
2018-12-26T17:53:23.611Z,33.33
2018-12-26T17:59:08.140Z,31.07
2018-12-26T18:04:54.221Z,32.37
2018-12-26T18:10:39.389Z,32.97
2018-12-26T18:16:25.743Z,35.70
2018-12-26T18:22:51.610Z,31.90
2018-12-26T18:25:53.166Z,31.73
2018-12-26T18:31:39.833Z,31.27
2018-12-26T18:34:41.032Z,32.70
2018-12-26T18:37:42.722Z,30.27
2018-12-26T18:40:44.456Z,28.97
2018-12-26T18:46:29.886Z,31.07
2018-12-26T18:49:31.103Z,28.00
2018-12-26T18:55:16.986Z,30.20
2018-12-26T18:58:18.114Z,36.00
2018-12-26T19:01:18.831Z,33.97
2018-12-26T19:07:03.487Z,30.47
2018-12-26T19:10:05.025Z,32.03
2018-12-26T19:15:50.918Z,35.77
2018-12-26T19:21:37.323Z,37.50
2018-12-26T19:27:23.931Z,39.27
2018-12-26T19:30:24.663Z,35.27
2018-12-26T19:36:10.386Z,36.03
2018-12-26T19:41:56.182Z,40.43
2018-12-26T19:47:40.993Z,36.37
2018-12-26T19:50:42.234Z,42.27
2018-12-26T19:56:26.988Z,38.50
2018-12-26T20:02:12.582Z,47.10
2018-12-26T20:07:58.976Z,41.20
2018-12-26T20:10:59.448Z,42.67
2018-12-26T20:16:47.301Z,37.43
2018-12-26T20:22:54.110Z,41.33
2018-12-26T20:28:39.989Z,42.93
2018-12-26T20:31:41.539Z,39.70
2018-12-26T20:34:43.912Z,41.07
2018-12-26T20:37:44.735Z,41.17
2018-12-26T20:43:25.198Z,38.80
2018-12-26T20:46:25.920Z,38.03
2018-12-26T20:52:11.496Z,39.07
2018-12-26T20:57:57.731Z,38.33
2018-12-26T21:03:38.347Z,43.43
2018-12-26T21:09:22.963Z,44.60
2018-12-26T21:12:24.616Z,39.60
2018-12-26T21:18:11.415Z,39.50
2018-12-26T21:23:57.910Z,35.67
2018-12-26T21:29:43.742Z,40.27
2018-12-26T21:32:45.008Z,38.37
2018-12-26T21:38:31.703Z,42.13
2018-12-26T21:44:17.227Z,41.67
2018-12-26T21:50:02.081Z,34.83
2018-12-26T21:53:03.323Z,37.90
2018-12-26T21:58:50.243Z,38.83
2018-12-26T22:04:34.951Z,41.30
2018-12-26T22:10:21.687Z,40.83
2018-12-26T22:13:23.345Z,46.30
2018-12-26T22:19:08.866Z,43.87
2018-12-26T22:24:54.415Z,53.87
2018-12-26T22:30:40.348Z,45.23
2018-12-26T22:33:41.562Z,39.80
2018-12-26T22:36:42.854Z,40.97
2018-12-26T22:39:43.425Z,48.00
2018-12-26T22:42:45.459Z,42.87
2018-12-26T22:45:46.148Z,42.23
2018-12-26T22:51:31.988Z,48.00
2018-12-26T22:54:32.654Z,39.23
2018-12-26T23:00:17.505Z,44.90
2018-12-26T23:06:03.163Z,38.03
2018-12-26T23:11:48.951Z,38.43
2018-12-26T23:14:49.999Z,38.37
2018-12-26T23:20:34.783Z,49.07
2018-12-26T23:26:21.480Z,34.00
2018-12-26T23:32:06.418Z,31.23
2018-12-26T23:35:07.935Z,33.33
2018-12-26T23:38:27.378Z,31.80
2018-12-26T23:41:48.239Z,33.50
2018-12-26T23:44:48.939Z,26.07
2018-12-26T23:50:34.030Z,28.80
2018-12-26T23:56:19.870Z,27.83
